createdAt,value
2022-09-30T00:01:29.403Z,27.00
2022-09-30T00:03:58.759Z,29.13
2022-09-30T00:06:27.825Z,24.55
2022-09-30T00:08:56.316Z,26.55
2022-09-30T00:11:26.366Z,23.50
2022-09-30T00:13:57.667Z,27.98
2022-09-30T00:16:27.275Z,27.55
2022-09-30T00:18:56.508Z,27.45
2022-09-30T00:21:25.503Z,26.73
2022-09-30T00:23:53.776Z,27.27
2022-09-30T00:26:23.591Z,29.77
2022-09-30T00:28:52.605Z,28.38
2022-09-30T00:31:23.533Z,25.63
2022-09-30T00:34:05.871Z,27.08
2022-09-30T00:36:34.825Z,28.73
2022-09-30T00:39:03.240Z,30.50
2022-09-30T00:41:31.228Z,27.55
2022-09-30T00:43:59.244Z,28.75
2022-09-30T00:46:43.833Z,26.20
2022-09-30T00:49:17.400Z,30.45
2022-09-30T00:51:49.859Z,28.27
2022-09-30T00:54:21.825Z,25.20
2022-09-30T00:56:53.411Z,26.13
2022-09-30T00:59:25.167Z,27.08
2022-09-30T01:01:55.985Z,25.48
2022-09-30T01:04:26.130Z,26.75
2022-09-30T01:06:54.701Z,27.70
2022-09-30T01:09:23.251Z,24.08
2022-09-30T01:11:51.562Z,26.85
2022-09-30T01:14:23.059Z,27.60
2022-09-30T01:17:02.424Z,28.30
2022-09-30T01:20:09.272Z,26.55
2022-09-30T01:22:44.369Z,27.15
2022-09-30T01:25:43.311Z,27.38
2022-09-30T01:28:40.944Z,25.23
2022-09-30T01:31:22.372Z,28.23
2022-09-30T01:33:57.278Z,27.33
2022-09-30T01:36:46.430Z,23.50
2022-09-30T01:39:38.582Z,26.00
2022-09-30T01:42:19.689Z,25.80
2022-09-30T01:44:55.657Z,26.88
2022-09-30T01:47:27.585Z,28.30
2022-09-30T01:50:01.167Z,25.87
2022-09-30T01:52:38.573Z,24.77
2022-09-30T01:55:13.836Z,31.27
2022-09-30T01:57:50.317Z,29.25
2022-09-30T02:00:18.700Z,25.98
2022-09-30T02:02:53.864Z,25.85
2022-09-30T02:05:27.732Z,29.02
2022-09-30T02:07:59.287Z,31.13
2022-09-30T02:10:32.316Z,28.33
2022-09-30T02:13:05.601Z,26.52
2022-09-30T02:15:40.510Z,26.95
2022-09-30T02:18:19.907Z,25.67
2022-09-30T02:20:52.418Z,27.42
2022-09-30T02:23:25.858Z,26.40
2022-09-30T02:26:00.773Z,27.50
2022-09-30T02:28:30.392Z,27.17
2022-09-30T02:31:03.376Z,24.83
2022-09-30T02:33:36.360Z,25.90
2022-09-30T02:38:39.378Z,29.92
2022-09-30T02:41:12.469Z,27.42
2022-09-30T02:43:42.142Z,29.17
2022-09-30T02:46:19.419Z,31.50
2022-09-30T02:48:55.767Z,29.58
2022-09-30T02:51:30.274Z,25.63
2022-09-30T02:54:08.449Z,25.95
2022-09-30T02:56:51.646Z,25.95
2022-09-30T02:59:20.140Z,29.35
2022-09-30T03:01:48.181Z,25.10
2022-09-30T03:04:23.426Z,27.35
2022-09-30T03:06:51.846Z,29.42
2022-09-30T03:09:20.137Z,27.38
2022-09-30T03:11:49.233Z,30.88
2022-09-30T03:14:46.521Z,31.73
2022-09-30T03:17:36.319Z,31.30
2022-09-30T03:20:21.199Z,37.38
2022-09-30T03:23:10.630Z,37.55
2022-09-30T03:25:48.019Z,35.92
2022-09-30T03:28:23.333Z,42.03
2022-09-30T03:31:02.737Z,36.72
2022-09-30T03:33:40.495Z,35.38
2022-09-30T03:36:16.699Z,35.33
2022-09-30T03:38:51.615Z,39.88
2022-09-30T03:41:28.879Z,42.17
2022-09-30T03:44:03.188Z,35.63
2022-09-30T03:46:36.165Z,37.35
2022-09-30T03:49:07.607Z,37.97
2022-09-30T03:51:39.229Z,33.50
2022-09-30T03:54:10.215Z,33.72
2022-09-30T03:56:43.099Z,31.60
2022-09-30T04:01:56.987Z,32.85
2022-09-30T04:04:25.369Z,31.25
2022-09-30T04:06:54.820Z,33.88
2022-09-30T04:09:23.252Z,31.52
2022-09-30T04:11:51.628Z,37.25
2022-09-30T04:14:19.779Z,31.10
2022-09-30T04:16:50.690Z,34.42
2022-09-30T04:19:21.714Z,29.02
2022-09-30T04:21:51.676Z,34.65
2022-09-30T04:24:21.180Z,34.70
2022-09-30T04:26:52.363Z,31.63
2022-09-30T04:29:20.358Z,31.58
2022-09-30T04:31:48.343Z,38.30
2022-09-30T04:34:16.768Z,34.33
2022-09-30T04:36:44.737Z,34.05
2022-09-30T04:39:12.848Z,31.13
2022-09-30T04:41:43.125Z,38.83
2022-09-30T04:44:11.398Z,38.45
2022-09-30T04:46:40.786Z,37.38
2022-09-30T04:49:09.724Z,34.30
2022-09-30T04:51:38.497Z,33.05
2022-09-30T04:54:06.971Z,40.13
2022-09-30T04:56:35.338Z,34.38
2022-09-30T04:59:04.854Z,35.38
2022-09-30T05:01:33.292Z,37.67
2022-09-30T05:04:03.752Z,32.70
2022-09-30T05:06:31.955Z,35.78
2022-09-30T05:09:00.204Z,40.90
2022-09-30T05:11:29.534Z,42.67
2022-09-30T05:13:57.611Z,36.80
2022-09-30T05:16:27.974Z,41.70
2022-09-30T05:18:56.180Z,36.10
2022-09-30T05:21:24.607Z,36.35
2022-09-30T05:23:57.592Z,38.88
2022-09-30T05:26:25.561Z,37.70
2022-09-30T05:28:53.859Z,37.22
2022-09-30T05:31:21.994Z,37.63
2022-09-30T05:33:55.777Z,39.47
2022-09-30T05:36:25.765Z,35.95
2022-09-30T05:38:54.274Z,39.30
2022-09-30T05:41:22.668Z,37.60
2022-09-30T05:43:51.355Z,35.33
2022-09-30T05:46:21.222Z,40.03
2022-09-30T05:48:49.364Z,41.50
2022-09-30T05:51:18.702Z,41.33
2022-09-30T05:53:46.967Z,33.42
2022-09-30T05:56:15.270Z,32.95
2022-09-30T05:58:43.355Z,31.17
2022-09-30T06:01:14.253Z,34.95
2022-09-30T06:03:42.591Z,32.45
2022-09-30T06:06:11.304Z,35.97
2022-09-30T06:08:41.474Z,33.83
2022-09-30T06:11:12.733Z,33.40
2022-09-30T06:13:41.424Z,34.95
2022-09-30T06:16:10.386Z,35.08
2022-09-30T06:18:41.264Z,35.75
2022-09-30T06:21:11.352Z,30.70
2022-09-30T06:23:41.583Z,31.40
2022-09-30T06:26:13.407Z,28.98
2022-09-30T06:28:42.590Z,35.55
2022-09-30T06:31:11.637Z,30.55
2022-09-30T06:33:39.924Z,33.08
2022-09-30T06:36:08.164Z,28.92
2022-09-30T06:38:39.851Z,31.15
2022-09-30T06:41:10.450Z,32.47
2022-09-30T06:43:47.969Z,27.05
2022-09-30T06:46:23.180Z,26.73
2022-09-30T06:49:09.520Z,25.58
2022-09-30T06:51:40.700Z,36.80
2022-09-30T06:54:09.143Z,28.63
2022-09-30T06:56:38.728Z,22.80
2022-09-30T06:59:07.065Z,31.95
2022-09-30T07:01:35.215Z,18.65
2022-09-30T07:04:09.576Z,22.23
2022-09-30T07:06:38.966Z,25.75
2022-09-30T07:09:11.244Z,23.75
2022-09-30T07:11:40.744Z,21.08
2022-09-30T07:14:13.353Z,23.95
2022-09-30T07:16:41.640Z,23.00
2022-09-30T07:19:11.870Z,24.95
2022-09-30T07:21:40.112Z,21.35
2022-09-30T07:24:09.398Z,23.75
2022-09-30T07:26:37.606Z,25.83
2022-09-30T07:29:07.223Z,27.45
2022-09-30T07:31:35.986Z,28.25
2022-09-30T07:34:07.712Z,33.15
2022-09-30T07:36:37.287Z,29.30
2022-09-30T07:39:08.295Z,26.65
2022-09-30T07:41:46.323Z,29.10
2022-09-30T07:44:16.444Z,29.38
2022-09-30T07:46:45.538Z,24.35
2022-09-30T07:49:15.881Z,28.83
2022-09-30T07:51:45.762Z,26.70
2022-09-30T07:54:16.540Z,28.55
2022-09-30T07:59:37.579Z,24.83
2022-09-30T08:02:07.142Z,35.50
2022-09-30T08:04:38.175Z,31.52
2022-09-30T08:07:08.746Z,28.48
2022-09-30T08:09:37.433Z,23.90
2022-09-30T08:12:06.237Z,31.23
2022-09-30T08:14:35.791Z,30.90
2022-09-30T08:17:04.077Z,31.02
2022-09-30T08:19:33.581Z,31.00
2022-09-30T08:24:30.695Z,35.53
2022-09-30T08:26:59.779Z,28.38
2022-09-30T08:32:20.767Z,24.83
2022-09-30T08:34:48.796Z,26.90
2022-09-30T08:37:17.201Z,28.00
2022-09-30T08:39:46.780Z,26.33
2022-09-30T08:42:47.102Z,30.00
2022-09-30T08:45:25.804Z,26.30
2022-09-30T08:48:05.058Z,27.38
2022-09-30T08:50:38.141Z,30.65
2022-09-30T08:53:12.540Z,26.08
2022-09-30T08:55:43.473Z,29.23
2022-09-30T08:58:22.944Z,27.77
2022-09-30T09:00:54.077Z,27.67
2022-09-30T09:03:29.004Z,25.70
2022-09-30T09:06:07.878Z,24.02
2022-09-30T09:08:50.662Z,28.23
2022-09-30T09:11:39.938Z,24.30
2022-09-30T09:14:25.889Z,27.50
2022-09-30T09:17:10.687Z,18.13
2022-09-30T09:19:48.627Z,22.33
2022-09-30T09:22:19.097Z,21.75
2022-09-30T09:24:53.529Z,22.65
2022-09-30T09:27:27.101Z,21.00
2022-09-30T09:30:06.740Z,17.90
2022-09-30T09:32:35.963Z,29.63
2022-09-30T09:35:15.515Z,23.27
2022-09-30T09:38:12.488Z,16.25
2022-09-30T09:40:57.095Z,18.17
2022-09-30T09:43:33.783Z,17.27
2022-09-30T09:46:07.174Z,16.88
2022-09-30T09:48:35.828Z,17.02
2022-09-30T09:51:14.107Z,24.52
2022-09-30T09:53:48.773Z,17.73
2022-09-30T09:56:19.678Z,20.90
2022-09-30T09:59:18.133Z,19.17
2022-09-30T10:01:50.315Z,15.18
2022-09-30T10:04:22.081Z,14.10
2022-09-30T10:06:55.082Z,14.27
2022-09-30T10:09:29.084Z,15.00
2022-09-30T10:12:30.636Z,15.98
2022-09-30T10:15:21.587Z,15.88
2022-09-30T10:17:55.684Z,14.13
2022-09-30T10:20:35.168Z,18.60
2022-09-30T10:23:10.867Z,18.17
2022-09-30T10:25:40.159Z,21.25
2022-09-30T10:28:24.301Z,14.77
2022-09-30T10:30:56.828Z,16.95
2022-09-30T10:33:37.778Z,13.68
2022-09-30T10:36:11.049Z,16.05
2022-09-30T10:38:53.387Z,11.48
2022-09-30T10:41:27.861Z,12.43
2022-09-30T10:43:59.080Z,12.00
2022-09-30T10:46:31.588Z,11.93
2022-09-30T10:49:00.409Z,11.53
2022-09-30T10:51:33.780Z,12.73
2022-09-30T10:54:04.122Z,11.02
2022-09-30T10:56:38.858Z,12.80
2022-09-30T10:59:16.674Z,17.95
2022-09-30T11:01:52.592Z,11.38
2022-09-30T11:04:28.915Z,13.05
2022-09-30T11:07:06.067Z,14.40
2022-09-30T11:09:45.651Z,11.38
2022-09-30T11:12:22.920Z,12.82
2022-09-30T11:14:59.008Z,10.65
2022-09-30T11:17:38.004Z,8.48
2022-09-30T11:20:19.578Z,12.70
2022-09-30T11:22:55.412Z,13.73
2022-09-30T11:25:31.427Z,10.52
2022-09-30T11:28:41.318Z,11.68
2022-09-30T11:31:20.121Z,11.52
2022-09-30T11:34:06.443Z,12.85
2022-09-30T11:36:43.033Z,11.35
2022-09-30T11:39:38.440Z,9.73
2022-09-30T11:42:13.765Z,8.45
2022-09-30T11:44:45.062Z,10.23
2022-09-30T11:47:35.035Z,8.85
2022-09-30T11:50:24.673Z,17.15
2022-09-30T11:53:00.428Z,10.55
2022-09-30T11:55:45.350Z,7.18
2022-09-30T11:58:40.008Z,8.65
2022-09-30T12:01:18.227Z,8.85
2022-09-30T12:03:55.117Z,9.82
2022-09-30T12:06:30.216Z,10.25
2022-09-30T12:09:04.282Z,6.57
2022-09-30T12:11:41.333Z,9.70
2022-09-30T12:14:17.436Z,6.85
2022-09-30T12:16:48.950Z,9.32
2022-09-30T12:19:25.318Z,9.82
2022-09-30T12:22:02.372Z,8.43
2022-09-30T12:24:35.671Z,8.10
2022-09-30T12:27:04.961Z,5.32
2022-09-30T12:29:58.260Z,8.93
2022-09-30T12:33:02.421Z,5.57
2022-09-30T12:35:55.161Z,6.32
2022-09-30T12:38:42.120Z,6.77
2022-09-30T12:41:33.982Z,9.27
2022-09-30T12:44:29.468Z,10.45
2022-09-30T12:47:12.456Z,14.63
2022-09-30T12:49:41.963Z,5.88
2022-09-30T12:52:16.075Z,5.78
2022-09-30T12:54:49.134Z,5.07
2022-09-30T12:57:21.506Z,7.72
2022-09-30T12:59:53.715Z,5.60
2022-09-30T13:02:35.398Z,7.38
2022-09-30T13:05:42.768Z,9.57
2022-09-30T13:08:25.469Z,6.00
2022-09-30T13:10:59.916Z,8.57
2022-09-30T13:13:32.495Z,8.30
2022-09-30T13:16:04.848Z,7.25
2022-09-30T13:19:03.079Z,7.97
2022-09-30T13:21:32.548Z,6.35
2022-09-30T13:24:01.806Z,6.13
2022-09-30T13:26:40.852Z,11.50
2022-09-30T13:29:44.619Z,9.23
2022-09-30T13:32:12.899Z,6.97
2022-09-30T13:34:58.630Z,4.38
2022-09-30T13:37:38.692Z,11.05
2022-09-30T13:40:43.253Z,6.75
2022-09-30T13:43:18.102Z,4.97
2022-09-30T13:45:49.164Z,5.88
2022-09-30T13:48:20.682Z,8.90
2022-09-30T13:50:53.168Z,5.55
2022-09-30T13:53:27.759Z,5.50
2022-09-30T13:55:57.221Z,6.32
2022-09-30T13:59:01.217Z,6.32
2022-09-30T14:01:47.138Z,6.85
2022-09-30T14:04:38.475Z,7.15
2022-09-30T14:07:16.575Z,7.05
2022-09-30T14:10:09.396Z,8.27
2022-09-30T14:16:01.919Z,16.13
2022-09-30T14:18:53.395Z,6.57
2022-09-30T14:21:36.283Z,6.35
2022-09-30T14:24:15.042Z,9.73
2022-09-30T14:26:56.154Z,6.68
2022-09-30T14:29:34.962Z,8.35
2022-09-30T14:32:11.969Z,4.85
2022-09-30T14:34:40.613Z,7.20
2022-09-30T14:37:18.603Z,8.10
2022-09-30T14:39:49.985Z,10.90
2022-09-30T14:42:24.644Z,6.95
2022-09-30T14:44:55.208Z,7.97
2022-09-30T14:47:26.791Z,8.32
2022-09-30T14:49:54.976Z,6.15
2022-09-30T14:52:43.088Z,8.07
2022-09-30T14:55:27.117Z,11.75
2022-09-30T14:57:58.707Z,7.13
2022-09-30T15:00:31.283Z,6.05
2022-09-30T15:03:00.621Z,8.93
2022-09-30T15:05:29.651Z,6.72
2022-09-30T15:07:57.921Z,8.27
2022-09-30T15:10:29.166Z,10.63
2022-09-30T15:12:57.392Z,6.15
2022-09-30T15:15:35.549Z,8.02
2022-09-30T15:18:25.714Z,10.48
2022-09-30T15:20:55.231Z,6.55
2022-09-30T15:23:27.743Z,5.82
2022-09-30T15:25:58.390Z,6.95
2022-09-30T15:28:27.104Z,9.73
2022-09-30T15:30:58.648Z,8.10
2022-09-30T15:33:29.092Z,5.47
2022-09-30T15:36:08.151Z,13.15
2022-09-30T15:38:38.355Z,10.02
2022-09-30T15:41:09.794Z,8.32
2022-09-30T15:43:41.098Z,8.50
2022-09-30T15:46:28.159Z,8.73
2022-09-30T15:49:01.706Z,10.68
2022-09-30T15:51:36.963Z,7.50
2022-09-30T15:54:35.676Z,5.63
2022-09-30T15:57:44.436Z,6.60
2022-09-30T16:00:39.099Z,8.88
2022-09-30T16:03:28.966Z,11.10
2022-09-30T16:06:08.082Z,9.50
2022-09-30T16:08:44.766Z,10.43
2022-09-30T16:11:21.195Z,10.90
2022-09-30T16:13:51.516Z,19.30
2022-09-30T16:16:22.690Z,9.95
2022-09-30T16:18:52.354Z,9.23
2022-09-30T16:21:44.494Z,14.90
2022-09-30T16:24:46.860Z,16.13
2022-09-30T16:27:35.997Z,15.05
2022-09-30T16:30:07.135Z,11.13
2022-09-30T16:32:40.103Z,15.15
2022-09-30T16:35:17.535Z,13.57
2022-09-30T16:37:45.780Z,16.30
2022-09-30T16:40:20.150Z,13.38
2022-09-30T16:42:48.504Z,15.23
2022-09-30T16:45:18.608Z,14.57
2022-09-30T16:47:46.741Z,19.13
2022-09-30T16:50:24.372Z,15.20
2022-09-30T16:52:52.859Z,17.17
2022-09-30T16:55:21.003Z,19.77
2022-09-30T16:57:50.301Z,14.85
2022-09-30T17:00:19.916Z,22.08
2022-09-30T17:02:49.631Z,26.55
2022-09-30T17:05:19.785Z,23.48
2022-09-30T17:07:51.656Z,18.23
2022-09-30T17:10:23.114Z,24.23
2022-09-30T17:12:53.595Z,27.30
2022-09-30T17:15:24.592Z,26.00
2022-09-30T17:17:53.224Z,33.10
2022-09-30T17:20:22.087Z,34.05
2022-09-30T17:22:50.374Z,38.03
2022-09-30T17:25:19.371Z,47.47
2022-09-30T17:27:50.253Z,42.83
2022-09-30T17:30:19.408Z,38.42
2022-09-30T17:32:50.910Z,30.00
2022-09-30T17:35:19.016Z,30.20
2022-09-30T17:37:47.830Z,30.73
2022-09-30T17:40:33.840Z,38.95
2022-09-30T17:43:14.484Z,32.17
2022-09-30T17:45:44.218Z,30.73
2022-09-30T17:48:17.656Z,35.90
2022-09-30T17:50:48.764Z,33.22
2022-09-30T17:53:19.063Z,31.30
2022-09-30T17:55:48.971Z,38.65
2022-09-30T17:58:18.658Z,36.35
2022-09-30T18:00:47.164Z,34.10
2022-09-30T18:03:19.811Z,30.77
2022-09-30T18:05:47.858Z,31.40
2022-09-30T18:08:15.932Z,38.78
2022-09-30T18:10:43.992Z,30.95
2022-09-30T18:13:11.990Z,31.15
2022-09-30T18:15:40.075Z,29.13
2022-09-30T18:18:08.324Z,25.08
2022-09-30T18:20:38.357Z,30.52
2022-09-30T18:23:06.750Z,30.20
2022-09-30T18:25:35.375Z,34.50
2022-09-30T18:28:06.200Z,23.27
2022-09-30T18:30:36.542Z,26.80
2022-09-30T18:33:07.275Z,28.85
2022-09-30T18:35:39.657Z,26.45
2022-09-30T18:38:07.989Z,23.30
2022-09-30T18:40:36.026Z,48.13
2022-09-30T18:43:05.399Z,59.38
2022-09-30T18:45:35.838Z,99.22
2022-09-30T18:48:04.429Z,54.22
2022-09-30T18:50:34.496Z,143.30
2022-09-30T18:53:09.515Z,90.40
2022-09-30T18:55:38.879Z,36.40
2022-09-30T18:58:07.712Z,44.13
2022-09-30T19:00:36.306Z,28.00
2022-09-30T19:03:05.034Z,25.48
2022-09-30T19:05:33.458Z,25.92
2022-09-30T19:08:04.412Z,24.90
2022-09-30T19:10:32.673Z,23.42
2022-09-30T19:13:01.563Z,26.77
2022-09-30T19:15:29.851Z,21.25
2022-09-30T19:17:58.641Z,23.98
2022-09-30T19:20:27.608Z,24.92
2022-09-30T19:22:58.491Z,28.50
2022-09-30T19:25:28.197Z,24.85
2022-09-30T19:27:57.210Z,23.65
2022-09-30T19:30:25.951Z,26.45
2022-09-30T19:32:59.290Z,23.90
2022-09-30T19:35:37.931Z,25.42
2022-09-30T19:38:07.520Z,28.70
2022-09-30T19:40:37.737Z,23.77
2022-09-30T19:43:08.167Z,24.52
2022-09-30T19:45:36.395Z,32.10
2022-09-30T19:48:07.402Z,30.52
2022-09-30T19:50:36.739Z,25.38
2022-09-30T19:53:04.705Z,29.75
2022-09-30T19:55:43.722Z,30.92
2022-09-30T20:00:56.118Z,34.08
2022-09-30T20:03:25.047Z,37.78
2022-09-30T20:05:58.313Z,32.60
2022-09-30T20:08:26.390Z,31.52
2022-09-30T20:10:55.493Z,35.45
2022-09-30T20:13:24.783Z,37.58
2022-09-30T20:15:51.892Z,42.90
2022-09-30T20:18:20.445Z,42.75
2022-09-30T20:20:48.864Z,38.80
2022-09-30T20:23:17.145Z,46.30
2022-09-30T20:25:45.210Z,48.42
2022-09-30T20:28:13.189Z,57.47
2022-09-30T20:30:45.520Z,43.88
2022-09-30T20:33:20.271Z,48.95
2022-09-30T20:35:49.088Z,39.75
2022-09-30T20:38:19.262Z,37.83
2022-09-30T20:40:47.503Z,34.97
2022-09-30T20:43:16.115Z,38.15
2022-09-30T20:45:46.069Z,35.05
2022-09-30T20:48:14.127Z,30.02
2022-09-30T20:50:43.568Z,29.77
2022-09-30T20:53:13.816Z,30.35
2022-09-30T20:55:44.343Z,28.23
2022-09-30T20:58:13.836Z,29.27
2022-09-30T21:00:43.154Z,27.58
2022-09-30T21:03:14.898Z,30.23
2022-09-30T21:05:51.521Z,30.77
2022-09-30T21:08:19.738Z,29.17
2022-09-30T21:10:48.175Z,34.25
2022-09-30T21:13:16.666Z,29.95
2022-09-30T21:15:45.113Z,29.85
2022-09-30T21:18:14.526Z,30.25
2022-09-30T21:20:42.636Z,28.73
2022-09-30T21:23:10.646Z,30.02
2022-09-30T21:25:38.789Z,28.25
2022-09-30T21:28:06.938Z,31.88
2022-09-30T21:30:35.233Z,27.48
2022-09-30T21:33:03.178Z,28.13
2022-09-30T21:35:32.583Z,31.85
2022-09-30T21:38:00.737Z,31.15
2022-09-30T21:40:28.963Z,28.45
2022-09-30T21:42:56.997Z,26.33
2022-09-30T21:45:25.531Z,33.30
2022-09-30T21:48:02.189Z,32.35
2022-09-30T21:50:31.311Z,32.97
2022-09-30T21:53:00.718Z,33.03
2022-09-30T21:55:30.405Z,31.10
2022-09-30T21:57:58.448Z,30.35
2022-09-30T22:00:26.361Z,30.25
2022-09-30T22:02:54.327Z,31.70
2022-09-30T22:05:22.261Z,26.88
2022-09-30T22:07:50.578Z,33.38
2022-09-30T22:10:19.989Z,28.00
2022-09-30T22:12:49.589Z,30.60
2022-09-30T22:15:17.773Z,33.50
2022-09-30T22:17:45.995Z,30.05
2022-09-30T22:20:13.986Z,30.17
2022-09-30T22:22:41.910Z,32.50
2022-09-30T22:25:10.219Z,35.10
2022-09-30T22:27:39.566Z,38.22
2022-09-30T22:30:09.368Z,33.92
2022-09-30T22:32:37.469Z,35.05
2022-09-30T22:35:23.522Z,30.98
2022-09-30T22:38:09.565Z,39.97
2022-09-30T22:40:37.831Z,37.42
2022-09-30T22:43:07.586Z,36.53
2022-09-30T22:45:37.844Z,33.40
2022-09-30T22:48:06.056Z,35.72
2022-09-30T22:50:36.523Z,33.03
2022-09-30T22:53:04.451Z,38.33
2022-09-30T22:55:33.270Z,32.63
2022-09-30T22:58:01.239Z,34.47
2022-09-30T23:00:32.344Z,36.10
2022-09-30T23:03:01.169Z,32.17
2022-09-30T23:05:29.726Z,32.75
2022-09-30T23:07:57.729Z,35.30
2022-09-30T23:10:27.750Z,32.90
2022-09-30T23:12:55.796Z,31.27
2022-09-30T23:15:23.849Z,31.23
2022-09-30T23:17:53.113Z,30.98
2022-09-30T23:20:25.623Z,31.98
2022-09-30T23:22:53.520Z,29.40
2022-09-30T23:25:21.461Z,32.63
2022-09-30T23:27:49.914Z,32.17
2022-09-30T23:30:18.333Z,34.00
2022-09-30T23:32:48.315Z,30.80
2022-09-30T23:35:17.786Z,32.75
2022-09-30T23:37:46.064Z,30.17
2022-09-30T23:40:14.065Z,25.35
2022-09-30T23:42:41.952Z,27.00
2022-09-30T23:45:10.957Z,27.02
2022-09-30T23:47:38.911Z,30.75
2022-09-30T23:50:07.877Z,29.08
2022-09-30T23:52:37.102Z,30.73
2022-09-30T23:55:05.449Z,29.10
2022-09-30T23:57:33.399Z,28.13
